Time;durP1;ratioP1;P1;durP2;ratioP2;P2;SDS_P1;SDS_P2;PMS_P1;PMS_P2;Temp;Humidity;BMP_temperature;BMP_pressure;BME280_temperature;BME280_humidity;BME280_pressure;Samples;Min_cycle;Max_cycle;Signal;HPM_P1;HPM_P2
2021/03/29 00:01:02;;;;;;;0.40;0.30;;;;;;;11.46;68.80;102114.59;5080797;28;20437;-71
2021/03/29 00:03:28;;;;;;;0.67;0.40;;;;;;;11.44;68.45;102106.72;5074307;28;20866;-71
2021/03/29 00:05:55;;;;;;;2.40;1.20;;;;;;;11.43;68.52;102110.53;5074234;28;21072;-71
2021/03/29 00:08:24;;;;;;;0.50;0.40;;;;;;;11.46;68.26;102109.16;5074604;28;20437;-71
2021/03/29 00:10:52;;;;;;;0.40;0.30;;;;;;;11.45;68.62;102111.06;5074586;28;20449;-71
2021/03/29 00:13:20;;;;;;;0.50;0.33;;;;;;;11.46;68.91;102109.16;5074409;28;20458;-71
2021/03/29 00:15:49;;;;;;;2.53;0.63;;;;;;;11.43;69.42;102104.28;5074153;28;20966;-71
2021/03/29 00:18:15;;;;;;;0.40;0.30;;;;;;;11.44;68.81;102105.91;5074380;28;20817;-71
2021/03/29 00:20:44;;;;;;;1.00;0.90;;;;;;;11.46;68.66;102106.44;5074361;28;20438;-71
2021/03/29 00:23:11;;;;;;;0.87;0.50;;;;;;;11.47;68.81;102106.19;5074192;28;20461;-71
2021/03/29 00:25:37;;;;;;;0.40;0.30;;;;;;;11.46;68.78;102101.84;5074196;28;20477;-71
2021/03/29 00:28:04;;;;;;;0.40;0.30;;;;;;;11.45;69.17;102096.69;5074188;28;20520;-71
2021/03/29 00:30:33;;;;;;;0.87;0.73;;;;;;;11.42;68.91;102098.06;5074175;28;20590;-71
2021/03/29 00:33:00;;;;;;;2.00;0.87;;;;;;;11.44;68.68;102112.16;5074025;28;20461;-71
2021/03/29 00:35:28;;;;;;;0.50;0.43;;;;;;;11.47;68.52;102099.97;5074037;28;20445;-71
2021/03/29 00:37:56;;;;;;;0.77;0.40;;;;;;;11.48;68.95;102101.59;5074004;28;20441;-71
2021/03/29 00:40:23;;;;;;;0.50;0.40;;;;;;;11.39;69.47;102112.16;5073975;28;20441;-71
2021/03/29 00:42:52;;;;;;;1.60;0.70;;;;;;;11.40;69.73;102110.25;5073893;28;20534;-70
2021/03/29 00:45:20;;;;;;;0.40;0.30;;;;;;;11.39;69.74;102114.88;5073435;28;20510;-71
2021/03/29 00:47:46;;;;;;;0.50;0.40;;;;;;;11.44;69.25;102105.91;5073530;28;20961;-72
2021/03/29 00:50:15;;;;;;;0.40;0.30;;;;;;;11.43;69.17;102109.72;5073751;28;20495;-71
2021/03/29 00:52:41;;;;;;;0.47;0.40;;;;;;;11.41;69.91;102112.69;5073668;28;20465;-71
2021/03/29 00:55:10;;;;;;;1.07;0.70;;;;;;;11.42;69.46;102105.34;5073349;28;20943;-71
2021/03/29 00:57:38;;;;;;;0.47;0.37;;;;;;;11.43;69.77;102110.53;5073643;28;20453;-71
2021/03/29 01:00:19;;;;;;;0.70;0.53;;;;;;;11.43;69.95;102110.53;5073627;28;20479;-71
2021/03/29 01:02:45;;;;;;;0.50;0.30;;;;;;;11.45;69.72;102115.69;5073292;28;20472;-72
2021/03/29 01:05:15;;;;;;;0.40;0.30;;;;;;;11.44;69.83;102114.06;5072906;28;20489;-72
2021/03/29 01:07:43;;;;;;;0.50;0.40;;;;;;;11.46;69.10;102107.25;5073465;28;20453;-70
2021/03/29 01:10:10;;;;;;;0.40;0.30;;;;;;;11.45;69.55;102116.50;5073474;28;20438;-72
2021/03/29 01:12:38;;;;;;;0.40;0.30;;;;;;;11.48;69.14;102107.81;5073314;28;20461;-72
2021/03/29 01:15:06;;;;;;;0.40;0.30;;;;;;;11.53;68.79;102112.44;5073463;28;20441;-72
2021/03/29 01:17:35;;;;;;;0.50;0.50;;;;;;;11.54;68.64;102109.44;5073370;28;20449;-71
2021/03/29 01:20:12;;;;;;;0.40;0.30;;;;;;;11.54;69.21;102111.34;5073400;28;20474;-71
2021/03/29 01:22:42;;;;;;;0.40;0.40;;;;;;;11.55;69.18;102107.53;5073305;28;20465;-71
2021/03/29 01:25:13;;;;;;;0.60;0.40;;;;;;;11.53;69.38;102102.41;5073213;28;20492;-71
2021/03/29 01:27:42;;;;;;;0.50;0.43;;;;;;;11.57;68.98;102105.38;5073288;28;20436;-71
2021/03/29 01:30:11;;;;;;;0.40;0.30;;;;;;;11.57;68.70;102105.38;5073162;28;20441;-71
2021/03/29 01:32:38;;;;;;;0.50;0.47;;;;;;;11.54;69.29;102100.50;5073116;28;20464;-71
2021/03/29 01:35:09;;;;;;;0.57;0.53;;;;;;;11.52;69.81;102099.97;5073210;28;20436;-71
2021/03/29 01:37:36;;;;;;;0.40;0.30;;;;;;;11.53;68.98;102099.69;5072948;28;20927;-72
2021/03/29 01:40:04;;;;;;;0.83;0.73;;;;;;;11.57;69.18;102099.97;5072878;28;20465;-71
2021/03/29 01:42:30;;;;;;;0.40;0.30;;;;;;;11.57;68.95;102097.25;5073066;28;20518;-72
2021/03/29 01:44:57;;;;;;;0.50;0.30;;;;;;;11.58;68.93;102098.88;5072656;28;20939;-72
2021/03/29 01:47:23;;;;;;;0.40;0.30;;;;;;;11.58;68.99;102098.88;5072772;28;20452;-71
2021/03/29 01:49:50;;;;;;;0.40;0.33;;;;;;;11.57;69.26;102099.97;5079208;28;20437;-71
2021/03/29 01:52:17;;;;;;;0.50;0.40;;;;;;;11.55;69.89;102102.13;5072991;28;20834;-72
2021/03/29 01:54:43;;;;;;;0.50;0.30;;;;;;;11.57;68.87;102106.19;5072993;28;20464;-72
2021/03/29 01:57:10;;;;;;;2.10;0.40;;;;;;;11.58;69.62;102104.31;5072725;28;20433;-72
2021/03/29 01:59:37;;;;;;;0.77;0.53;;;;;;;11.54;69.38;102109.44;5076735;28;20449;-72
2021/03/29 02:02:05;;;;;;;0.50;0.30;;;;;;;11.53;70.32;102115.16;5076444;28;21057;-72
2021/03/29 02:04:32;;;;;;;0.40;0.30;;;;;;;11.51;70.25;102106.44;5105343;22;20936;-67
2021/03/29 02:07:00;;;;;;;3.70;0.60;;;;;;;11.52;69.84;102098.06;5097034;28;20480;-68
2021/03/29 02:09:26;;;;;;;0.40;0.30;;;;;;;11.52;69.65;102095.34;5096920;28;20455;-67
2021/03/29 02:11:53;;;;;;;0.40;0.30;;;;;;;11.52;69.82;102089.91;5096801;28;20432;-68
2021/03/29 02:14:21;;;;;;;0.40;0.30;;;;;;;11.50;69.69;102093.97;5097109;28;20448;-68
2021/03/29 02:16:48;;;;;;;0.50;0.40;;;;;;;11.47;69.68;102094.53;5097176;28;20444;-67
2021/03/29 02:19:17;;;;;;;0.50;0.40;;;;;;;11.46;69.82;102095.59;5096694;28;20447;-69
2021/03/29 02:21:44;;;;;;;0.50;0.40;;;;;;;11.45;69.59;102092.06;5097060;28;20459;-68
2021/03/29 02:24:12;;;;;;;0.70;0.60;;;;;;;11.44;70.03;102087.75;5096898;28;20458;-68
2021/03/29 02:26:39;;;;;;;0.60;0.43;;;;;;;11.45;70.02;102075.78;5096902;28;20484;-67
2021/03/29 02:29:06;;;;;;;0.80;0.70;;;;;;;11.45;70.07;102080.41;5096596;28;20819;-68
2021/03/29 02:31:33;;;;;;;0.60;0.57;;;;;;;11.45;70.30;102070.38;5096936;28;20463;-68
2021/03/29 02:34:03;;;;;;;0.67;0.50;;;;;;;11.40;70.88;102080.41;5096770;28;20440;-68
2021/03/29 02:36:30;;;;;;;3.43;0.47;;;;;;;11.27;71.22;102074.41;5096722;28;20440;-68
2021/03/29 02:38:57;;;;;;;3.07;0.47;;;;;;;11.19;71.43;102072.22;5096727;28;20463;-68
2021/03/29 02:41:27;;;;;;;0.40;0.30;;;;;;;11.15;71.66;102070.31;5097023;28;20451;-68
2021/03/29 02:43:54;;;;;;;0.50;0.30;;;;;;;11.08;72.09;102078.72;5096730;28;20436;-68
2021/03/29 02:46:23;;;;;;;1.00;0.77;;;;;;;11.05;72.32;102077.34;5096421;28;20489;-69
2021/03/29 02:48:50;;;;;;;0.40;0.30;;;;;;;10.99;72.73;102072.19;5096482;28;20444;-69
2021/03/29 02:51:17;;;;;;;5.00;0.70;;;;;;;10.98;73.63;102075.97;5096616;28;20448;-69
2021/03/29 02:53:48;;;;;;;0.70;0.43;;;;;;;11.02;73.24;102083.31;5096051;28;20957;-69
2021/03/29 02:56:17;;;;;;;0.40;0.30;;;;;;;11.01;72.98;102080.84;5096021;28;21027;-69
2021/03/29 02:58:48;;;;;;;0.40;0.30;;;;;;;11.07;72.63;102079.81;5096121;28;20493;-68
2021/03/29 03:01:15;;;;;;;2.70;0.67;;;;;;;11.05;73.07;102085.47;5096301;28;20433;-69
2021/03/29 03:03:43;;;;;;;0.50;0.40;;;;;;;11.10;72.33;102081.97;5096290;28;20444;-69
2021/03/29 03:06:10;;;;;;;0.40;0.30;;;;;;;11.11;72.42;102086.31;5095824;28;20488;-67
2021/03/29 03:08:37;;;;;;;0.40;0.30;;;;;;;11.12;72.76;102079.81;5095802;28;20451;-68
2021/03/29 03:11:05;;;;;;;0.40;0.40;;;;;;;11.11;72.74;102080.88;5096117;28;20449;-69
2021/03/29 03:13:31;;;;;;;0.77;0.40;;;;;;;11.12;72.35;102082.53;5096127;28;20455;-69
2021/03/29 03:15:57;;;;;;;0.50;0.30;;;;;;;11.14;71.95;102085.78;5095904;28;20456;-69
2021/03/29 03:18:23;;;;;;;5.37;1.03;;;;;;;11.14;72.33;102074.94;5096116;28;20782;-69
2021/03/29 03:20:49;;;;;;;0.80;0.70;;;;;;;11.12;73.57;102082.53;5095964;28;20440;-68
2021/03/29 03:23:16;;;;;;;1.13;0.80;;;;;;;11.06;73.51;102083.59;5095949;28;20960;-68
2021/03/29 03:25:44;;;;;;;0.40;0.30;;;;;;;11.08;73.28;102082.25;5095539;28;20491;-70
2021/03/29 03:28:12;;;;;;;1.50;0.80;;;;;;;11.07;73.00;102083.34;5095866;28;20441;-68
2021/03/29 03:30:41;;;;;;;0.70;0.60;;;;;;;11.07;72.67;102090.66;5095757;28;20444;-69
2021/03/29 03:33:09;;;;;;;1.17;1.07;;;;;;;11.04;72.62;102088.47;5095710;28;20441;-68
2021/03/29 03:35:37;;;;;;;0.50;0.47;;;;;;;11.02;73.08;102087.91;5095640;28;20464;-68
2021/03/29 03:38:09;;;;;;;0.80;0.70;;;;;;;11.05;72.75;102087.38;5095689;28;20445;-68
2021/03/29 03:40:37;;;;;;;0.50;0.50;;;;;;;11.06;72.66;102078.16;5095655;28;20429;-67
2021/03/29 03:43:07;;;;;;;0.90;0.80;;;;;;;11.03;72.31;102090.38;5095306;28;21028;-69
2021/03/29 03:45:38;;;;;;;1.90;0.40;;;;;;;11.01;72.73;102080.84;5095314;28;20605;-68
2021/03/29 03:48:06;;;;;;;0.40;0.30;;;;;;;11.01;72.94;102089.00;5095468;28;20424;-68
2021/03/29 03:50:32;;;;;;;0.40;0.30;;;;;;;10.99;72.87;102088.47;5095457;28;20527;-68
2021/03/29 03:52:59;;;;;;;0.60;0.43;;;;;;;10.97;72.37;102085.19;5095421;28;20497;-69
2021/03/29 03:55:26;;;;;;;0.40;0.30;;;;;;;10.96;72.65;102086.28;5094993;28;20460;-68
2021/03/29 03:57:52;;;;;;;0.40;0.30;;;;;;;10.93;72.25;102087.59;5095259;28;20433;-68
2021/03/29 04:00:20;;;;;;;0.50;0.37;;;;;;;10.92;72.50;102077.03;5095117;28;20532;-68
2021/03/29 04:02:50;;;;;;;2.33;0.73;;;;;;;10.86;72.78;102074.31;5094867;28;20448;-68
2021/03/29 04:05:17;;;;;;;0.50;0.40;;;;;;;10.80;74.12;102080.81;5094484;28;20992;-68
2021/03/29 04:07:44;;;;;;;0.40;0.30;;;;;;;10.79;73.40;102067.50;5094991;28;20455;-66
2021/03/29 04:10:15;;;;;;;0.50;0.40;;;;;;;10.80;72.52;102069.13;5094906;28;21017;-67
2021/03/29 04:12:43;;;;;;;1.23;0.50;;;;;;;10.80;73.29;102075.41;5094684;28;20427;-68
2021/03/29 04:15:10;;;;;;;1.40;0.60;;;;;;;10.82;72.83;102067.78;5094934;28;20500;-68
2021/03/29 04:17:36;;;;;;;0.40;0.30;;;;;;;10.85;72.72;102066.47;5094891;28;20444;-68
2021/03/29 04:20:04;;;;;;;0.40;0.30;;;;;;;10.89;72.34;102072.13;5094124;28;20946;-65
2021/03/29 04:22:30;;;;;;;0.40;0.30;;;;;;;10.93;71.97;102079.47;5094346;28;20440;-65
2021/03/29 04:24:56;;;;;;;1.27;1.17;;;;;;;10.91;71.75;102075.41;5094814;28;20460;-66
2021/03/29 04:27:21;;;;;;;0.47;0.40;;;;;;;10.97;71.84;102079.75;5094546;28;20484;-66
2021/03/29 04:29:47;;;;;;;0.40;0.30;;;;;;;11.00;71.21;102079.25;5094354;28;20437;-69
2021/03/29 04:32:13;;;;;;;0.50;0.30;;;;;;;11.03;71.55;102086.84;5094517;28;20505;-69
2021/03/29 04:34:39;;;;;;;0.40;0.30;;;;;;;11.06;70.80;102083.59;5094405;28;20521;-68
2021/03/29 04:37:06;;;;;;;0.70;0.60;;;;;;;11.09;70.72;102075.72;5094426;28;20448;-67
2021/03/29 04:39:32;;;;;;;0.50;0.30;;;;;;;11.09;70.67;102073.03;5094534;28;20896;-68
2021/03/29 04:41:58;;;;;;;0.67;0.67;;;;;;;11.09;71.03;102089.28;5094101;28;20461;-67
2021/03/29 04:44:24;;;;;;;0.40;0.30;;;;;;;11.11;70.35;102083.59;5093994;28;20456;-68
2021/03/29 04:46:50;;;;;;;0.60;0.60;;;;;;;11.14;70.48;102090.38;5094210;28;20480;-67
2021/03/29 04:49:16;;;;;;;0.67;0.33;;;;;;;11.15;70.11;102083.88;5093882;28;20488;-68
2021/03/29 04:51:42;;;;;;;1.20;0.70;;;;;;;11.16;70.10;102089.06;5094190;28;20437;-69
2021/03/29 04:54:09;;;;;;;0.57;0.40;;;;;;;11.13;70.54;102089.59;5093730;28;20524;-68
2021/03/29 04:56:34;;;;;;;0.60;0.40;;;;;;;11.13;70.29;102092.28;5094058;28;20439;-66
2021/03/29 04:59:00;;;;;;;0.40;0.30;;;;;;;11.07;70.42;102091.47;5094136;28;20440;-65
2021/03/29 05:01:26;;;;;;;1.13;1.03;;;;;;;11.11;70.35;102095.28;5094154;28;20440;-64
2021/03/29 05:03:52;;;;;;;2.53;0.50;;;;;;;11.13;70.30;102089.59;5093781;28;20455;-64
2021/03/29 05:06:18;;;;;;;0.40;0.40;;;;;;;11.12;70.14;102087.97;5093350;28;20492;-64
2021/03/29 05:08:44;;;;;;;1.07;0.50;;;;;;;11.13;70.08;102092.28;5093814;28;20436;-64
2021/03/29 05:11:12;;;;;;;0.80;0.43;;;;;;;11.08;70.66;102097.72;5093500;28;20436;-64
2021/03/29 05:13:38;;;;;;;0.50;0.30;;;;;;;11.09;71.17;102089.28;5093741;28;20479;-64
2021/03/29 05:16:05;;;;;;;0.80;0.50;;;;;;;11.02;71.31;102090.63;5093364;28;20875;-64
2021/03/29 05:18:31;;;;;;;0.50;0.50;;;;;;;11.03;70.69;102095.78;5093802;28;20445;-64
2021/03/29 05:20:57;;;;;;;0.47;0.40;;;;;;;11.14;70.35;102087.69;5093669;28;20789;-64
2021/03/29 05:23:23;;;;;;;0.60;0.60;;;;;;;11.17;69.41;102087.16;5093691;28;20436;-65
2021/03/29 05:25:49;;;;;;;1.63;0.57;;;;;;;11.20;69.50;102084.72;5093463;28;20495;-65
2021/03/29 05:28:17;;;;;;;3.27;1.00;;;;;;;11.23;70.00;102091.50;5093745;28;20440;-65
2021/03/29 05:30:43;;;;;;;1.40;0.63;;;;;;;11.28;69.22;102086.88;5093207;28;20961;-65
2021/03/29 05:33:09;;;;;;;1.13;0.50;;;;;;;11.36;68.77;102099.13;5093450;28;20447;-65
2021/03/29 05:35:35;;;;;;;0.50;0.40;;;;;;;11.42;68.67;102091.78;5093445;28;20452;-64
2021/03/29 05:38:01;;;;;;;0.63;0.40;;;;;;;11.48;68.17;102101.59;5093246;28;20942;-64
2021/03/29 05:40:27;;;;;;;0.50;0.50;;;;;;;11.52;67.89;102100.78;5093135;28;20436;-64
2021/03/29 05:42:54;;;;;;;0.57;0.43;;;;;;;11.53;68.45;102098.88;5093391;28;20455;-63
2021/03/29 05:45:22;;;;;;;0.53;0.40;;;;;;;11.57;67.80;102108.09;5092938;28;20833;-65
2021/03/29 05:47:48;;;;;;;0.93;0.80;;;;;;;11.55;68.28;102111.09;5093333;28;20449;-64
2021/03/29 05:50:16;;;;;;;2.00;1.43;;;;;;;11.58;68.01;102115.16;5093249;28;20440;-65
2021/03/29 05:52:43;;;;;;;0.50;0.43;;;;;;;11.59;67.47;102114.06;5093284;28;20486;-66
2021/03/29 05:55:16;;;;;;;1.00;0.70;;;;;;;11.59;67.79;102125.72;5093258;28;20477;-64
2021/03/29 05:58:04;;;;;;;0.60;0.50;;;;;;;11.61;68.08;102125.47;5092991;28;20425;-65
2021/03/29 06:00:36;;;;;;;0.60;0.33;;;;;;;11.64;67.65;102122.22;5092773;28;20437;-64
2021/03/29 06:03:21;;;;;;;0.50;0.40;;;;;;;11.67;67.56;102132.53;5093245;28;20470;-64
2021/03/29 06:05:47;;;;;;;0.40;0.33;;;;;;;11.70;67.74;102133.91;5092788;28;20487;-65
2021/03/29 06:08:13;;;;;;;0.50;0.40;;;;;;;11.72;67.64;102129.81;5092901;28;20938;-64
2021/03/29 06:10:40;;;;;;;0.50;0.37;;;;;;;11.80;68.01;102133.91;5093326;28;20444;-65
2021/03/29 06:13:15;;;;;;;1.27;0.40;;;;;;;11.91;66.56;102126.59;5093219;28;20437;-64
2021/03/29 06:15:43;;;;;;;0.50;0.40;;;;;;;11.98;66.67;102119.81;5093005;28;20448;-65
2021/03/29 06:18:13;;;;;;;0.50;0.40;;;;;;;12.00;66.42;102127.72;5093082;28;20439;-68
2021/03/29 06:20:59;;;;;;;1.13;1.03;;;;;;;12.09;65.68;102126.06;5093084;28;20440;-64
2021/03/29 06:23:25;;;;;;;0.53;0.53;;;;;;;12.13;65.79;102129.88;5092972;28;20440;-64
2021/03/29 06:25:51;;;;;;;0.60;0.50;;;;;;;12.19;65.58;102127.94;5092910;28;20540;-64
2021/03/29 06:28:24;;;;;;;1.50;0.70;;;;;;;12.23;65.12;102132.56;5093057;28;20984;-63
2021/03/29 06:30:51;;;;;;;0.97;0.53;;;;;;;12.18;64.72;102132.56;5092955;28;20420;-65
2021/03/29 06:33:17;;;;;;;2.90;0.70;;;;;;;12.24;64.58;102127.94;5092719;28;20440;-65
2021/03/29 06:35:45;;;;;;;5.77;0.60;;;;;;;12.31;64.26;102134.72;5092874;28;20558;-65
2021/03/29 06:38:15;;;;;;;1.17;0.60;;;;;;;12.32;63.62;102121.94;5092927;28;20447;-63
2021/03/29 06:40:47;;;;;;;1.07;0.97;;;;;;;12.37;63.52;102130.91;5092536;28;20458;-64
2021/03/29 06:43:24;;;;;;;0.67;0.67;;;;;;;12.42;62.92;102124.63;5092680;28;20450;-63
2021/03/29 06:45:53;;;;;;;4.70;2.87;;;;;;;12.48;62.97;102123.53;5096466;28;20498;-63
2021/03/29 06:48:25;;;;;;;1.23;1.13;;;;;;;12.52;63.13;102121.88;5096489;28;20436;-65
2021/03/29 06:51:09;;;;;;;2.10;1.60;;;;;;;12.61;62.64;102133.81;5096450;28;20425;-64
2021/03/29 06:53:36;;;;;;;2.23;1.20;;;;;;;12.66;62.61;102122.16;5096359;28;20424;-64
2021/03/29 06:56:20;;;;;;;3.27;2.07;;;;;;;12.71;61.95;102124.03;5096259;28;20872;-64
2021/03/29 06:58:46;;;;;;;1.57;0.93;;;;;;;12.72;61.88;102112.88;5096372;28;20420;-65
2021/03/29 07:01:17;;;;;;;0.40;0.30;;;;;;;12.72;62.32;102120.22;5096048;28;20816;-64
2021/03/29 07:03:43;;;;;;;0.50;0.50;;;;;;;12.74;62.39;102113.38;5096381;28;20429;-65
2021/03/29 07:06:10;;;;;;;2.30;1.00;;;;;;;12.74;62.93;102123.47;5095707;28;20480;-63
2021/03/29 07:08:36;;;;;;;3.97;2.23;;;;;;;12.75;63.30;102125.06;5096196;28;20452;-64
2021/03/29 07:11:02;;;;;;;5.73;1.30;;;;;;;12.73;62.33;102132.72;5096073;28;20437;-64
2021/03/29 07:13:31;;;;;;;0.70;0.60;;;;;;;12.77;63.28;102118.28;5095762;28;20937;-64
2021/03/29 07:15:59;;;;;;;3.13;0.60;;;;;;;12.89;63.35;102134.28;5095860;28;20456;-64
2021/03/29 07:18:26;;;;;;;4.47;0.63;;;;;;;13.02;61.56;102130.16;5095869;28;20463;-63
2021/03/29 07:20:54;;;;;;;1.27;0.73;;;;;;;13.13;61.57;102123.56;5095741;28;20433;-64
2021/03/29 07:23:20;;;;;;;0.60;0.60;;;;;;;13.14;60.65;102122.47;5095834;28;20437;-64
2021/03/29 07:25:46;;;;;;;0.80;0.53;;;;;;;13.20;60.52;102126.78;5095656;28;20490;-64
2021/03/29 07:28:14;;;;;;;0.80;0.33;;;;;;;13.28;60.10;102128.13;5095840;28;20448;-64
2021/03/29 07:30:47;;;;;;;0.70;0.70;;;;;;;13.31;59.52;102128.38;5095398;28;20944;-64
2021/03/29 07:33:14;;;;;;;0.73;0.60;;;;;;;13.41;59.35;102134.84;5095696;28;20791;-64
2021/03/29 07:35:48;;;;;;;0.60;0.50;;;;;;;13.47;60.44;102141.91;5095565;28;20503;-64
2021/03/29 07:38:15;;;;;;;2.53;0.70;;;;;;;13.43;59.35;102144.38;5095616;28;20417;-64
2021/03/29 07:40:47;;;;;;;0.77;0.53;;;;;;;13.49;58.93;102145.16;5095207;28;20479;-63
2021/03/29 07:43:16;;;;;;;0.70;0.60;;;;;;;13.58;58.88;102143.47;5095500;28;20458;-64
2021/03/29 07:45:48;;;;;;;0.50;0.30;;;;;;;13.64;58.75;102131.44;5095326;28;20464;-65
2021/03/29 07:48:16;;;;;;;0.40;0.30;;;;;;;13.71;58.69;102140.09;5095048;28;20428;-64
2021/03/29 07:50:48;;;;;;;3.60;0.63;;;;;;;13.79;59.37;102138.69;5095197;28;20441;-66
2021/03/29 07:53:19;;;;;;;1.93;0.70;;;;;;;13.92;57.90;102145.41;5095232;28;20440;-66
2021/03/29 07:55:47;;;;;;;0.80;0.60;;;;;;;13.79;57.83;102144.94;5094026;28;20486;-65
2021/03/29 07:58:15;;;;;;;0.50;0.50;;;;;;;13.77;58.32;102157.22;5095114;28;20463;-63
2021/03/29 08:00:49;;;;;;;0.50;0.37;;;;;;;13.76;58.32;102150.13;5095172;28;20441;-63
2021/03/29 08:03:40;;;;;;;0.40;0.30;;;;;;;13.84;59.00;102147.63;5095150;28;20421;-65
2021/03/29 08:06:08;;;;;;;4.00;0.50;;;;;;;13.92;58.59;102148.13;5088762;28;20484;-66
2021/03/29 08:08:42;;;;;;;0.70;0.50;;;;;;;14.06;58.84;102149.88;5120071;22;20528;-70
2021/03/29 08:11:11;;;;;;;0.70;0.50;;;;;;;14.16;57.86;102151.72;5095837;28;20436;-70
2021/03/29 08:13:39;;;;;;;0.40;0.30;;;;;;;14.12;56.83;102153.38;5096696;28;20976;-71
2021/03/29 08:16:06;;;;;;;0.73;0.73;;;;;;;14.14;57.14;102160.19;5095061;28;20437;-72
2021/03/29 08:19:05;;;;;;;0.50;0.40;;;;;;;14.26;57.10;102156.28;5094807;28;20457;-71
2021/03/29 08:21:45;;;;;;;0.40;0.30;;;;;;;14.41;57.20;102158.03;5094496;28;20607;-70
2021/03/29 08:24:17;;;;;;;0.40;0.30;;;;;;;14.44;56.98;102166.44;5094868;28;20448;-71
2021/03/29 08:26:44;;;;;;;1.13;0.77;;;;;;;14.39;57.47;102167.31;5099702;28;20471;-72
2021/03/29 08:29:29;;;;;;;0.40;0.30;;;;;;;14.37;55.97;102166.78;5103820;28;20997;-71
2021/03/29 08:32:00;;;;;;;0.60;0.40;;;;;;;14.51;57.02;102177.03;5094731;28;20429;-72
2021/03/29 08:34:26;;;;;;;0.50;0.30;;;;;;;14.53;57.02;102164.75;5094691;28;20509;-71
2021/03/29 08:36:54;;;;;;;0.60;0.50;;;;;;;14.54;56.75;102166.38;5093770;28;20809;-72
2021/03/29 08:39:20;;;;;;;0.50;0.50;;;;;;;14.51;57.11;102175.13;5093757;28;20830;-72
2021/03/29 08:41:47;;;;;;;0.47;0.40;;;;;;;14.53;57.18;102163.94;5094261;28;20527;-71
2021/03/29 08:44:13;;;;;;;0.50;0.50;;;;;;;14.63;56.52;102166.56;5094252;28;20447;-72
2021/03/29 08:46:40;;;;;;;0.50;0.40;;;;;;;14.67;56.75;102161.34;5094080;28;20855;-71
2021/03/29 08:49:08;;;;;;;0.50;0.40;;;;;;;14.64;58.03;102165.44;5094121;28;20461;-72
2021/03/29 08:51:34;;;;;;;0.90;0.70;;;;;;;14.79;57.20;102167.22;5094038;28;20478;-72
2021/03/29 08:54:06;;;;;;;0.50;0.50;;;;;;;14.94;56.99;102164.28;5093922;28;20971;-72
2021/03/29 08:56:39;;;;;;;2.10;2.00;;;;;;;15.02;55.55;102162.84;5093631;28;20440;-71
2021/03/29 08:59:05;;;;;;;0.50;0.40;;;;;;;15.14;55.76;102152.31;5093864;28;20543;-72
2021/03/29 09:01:31;;;;;;;0.50;0.50;;;;;;;15.29;55.73;102163.00;5093987;28;20449;-71
2021/03/29 09:04:01;;;;;;;0.50;0.40;;;;;;;15.51;55.86;102178.00;5093962;28;21055;-72
2021/03/29 09:06:28;;;;;;;0.60;0.30;;;;;;;15.49;54.45;102172.81;5093572;28;20935;-71
2021/03/29 09:08:54;;;;;;;1.53;0.40;;;;;;;15.51;54.68;102172.53;5093745;28;20537;-72
2021/03/29 09:11:21;;;;;;;0.90;0.40;;;;;;;15.59;54.81;102175.44;5093514;28;20949;-73
2021/03/29 09:13:47;;;;;;;0.50;0.30;;;;;;;15.58;52.69;102175.72;5093812;28;20478;-73
2021/03/29 09:16:13;;;;;;;0.40;0.30;;;;;;;15.59;53.25;102174.63;5093892;28;20440;-73
2021/03/29 09:18:39;;;;;;;2.20;0.40;;;;;;;15.46;53.87;102186.28;5093315;28;20496;-72
2021/03/29 09:21:05;;;;;;;2.10;0.50;;;;;;;15.47;53.42;102183.25;5093820;28;20450;-72
2021/03/29 09:23:32;;;;;;;1.37;0.70;;;;;;;15.52;53.00;102179.63;5093776;28;20851;-72
2021/03/29 09:26:01;;;;;;;0.60;0.40;;;;;;;15.47;53.07;102171.50;5093630;28;20491;-72
2021/03/29 09:28:41;;;;;;;1.33;0.50;;;;;;;15.54;52.53;102178.25;5093606;28;20472;-73
2021/03/29 09:31:10;;;;;;;0.50;0.33;;;;;;;15.78;52.70;102172.72;5093688;28;20433;-72
2021/03/29 09:33:40;;;;;;;0.50;0.40;;;;;;;15.86;51.90;102168.50;5093407;28;20440;-72
2021/03/29 09:36:08;;;;;;;1.03;0.70;;;;;;;15.92;51.37;102161.03;5093432;28;20826;-72
2021/03/29 09:38:37;;;;;;;5.10;0.73;;;;;;;16.04;51.47;102164.09;5093475;28;20456;-70
2021/03/29 09:41:13;;;;;;;0.87;0.87;;;;;;;16.11;51.04;102165.34;5092874;28;20851;-73
2021/03/29 09:43:42;;;;;;;0.40;0.30;;;;;;;16.18;51.32;102164.94;5093200;28;20917;-73
2021/03/29 09:46:08;;;;;;;0.97;0.60;;;;;;;16.27;50.31;102165.06;5093174;28;20480;-73
2021/03/29 09:48:35;;;;;;;0.50;0.33;;;;;;;16.25;49.84;102159.09;5093303;28;20467;-71
2021/03/29 09:51:01;;;;;;;2.70;1.87;;;;;;;16.28;50.69;102163.94;5093435;28;20437;-72
2021/03/29 09:53:33;;;;;;;1.40;0.50;;;;;;;16.16;50.19;102172.66;5093404;28;20448;-71
2021/03/29 09:56:03;;;;;;;0.60;0.50;;;;;;;16.21;50.41;102174.50;5093412;28;20493;-72
2021/03/29 09:58:32;;;;;;;0.40;0.40;;;;;;;16.35;50.53;102175.31;5093127;28;20468;-72
2021/03/29 10:01:01;;;;;;;0.60;0.40;;;;;;;16.28;48.92;102170.22;5093319;28;20444;-72
2021/03/29 10:03:28;;;;;;;0.63;0.50;;;;;;;16.30;49.85;102173.50;5093204;28;20440;-73
2021/03/29 10:05:55;;;;;;;0.60;0.40;;;;;;;16.42;49.50;102163.97;5093630;28;20440;-72
2021/03/29 10:08:29;;;;;;;0.70;0.40;;;;;;;16.53;48.62;102166.22;5092882;28;20525;-71
2021/03/29 10:11:03;;;;;;;0.53;0.40;;;;;;;16.64;48.82;102164.94;5093163;28;20439;-71
2021/03/29 10:13:37;;;;;;;5.93;0.63;;;;;;;16.64;49.20;102164.09;5093235;28;20519;-72
2021/03/29 10:16:18;;;;;;;2.23;0.70;;;;;;;16.53;49.10;102157.22;5093327;28;20424;-72
2021/03/29 10:18:44;;;;;;;2.60;0.70;;;;;;;16.43;49.47;102154.69;5093707;28;20464;-72
2021/03/29 10:21:11;;;;;;;0.80;0.63;;;;;;;16.47;48.74;102161.13;5097177;28;20444;-73
2021/03/29 10:23:41;;;;;;;1.80;1.10;;;;;;;16.41;49.31;102163.16;5096859;28;20845;-71
2021/03/29 10:26:20;;;;;;;0.50;0.40;;;;;;;16.35;49.80;102178.06;5096754;28;20525;-74
2021/03/29 10:28:55;;;;;;;0.50;0.37;;;;;;;16.19;49.57;102177.50;5096495;28;20467;-71
2021/03/29 10:31:23;;;;;;;0.83;0.50;;;;;;;16.05;50.50;102158.31;5096985;28;20487;-72
2021/03/29 10:33:49;;;;;;;17.07;0.77;;;;;;;15.90;50.32;102166.78;5097064;28;20436;-73
2021/03/29 10:36:16;;;;;;;1.03;0.50;;;;;;;15.94;50.89;102159.63;5096913;28;20525;-73
2021/03/29 10:38:42;;;;;;;1.33;0.63;;;;;;;15.90;50.61;102166.78;5096918;28;20460;-73
2021/03/29 10:41:09;;;;;;;0.50;0.40;;;;;;;16.01;51.23;102160.03;5099732;28;20466;-73
2021/03/29 10:43:35;;;;;;;0.97;0.60;;;;;;;16.16;50.70;102167.19;5099868;28;20440;-73
2021/03/29 10:46:01;;;;;;;2.87;0.43;;;;;;;16.18;50.57;102162.22;5096841;28;20520;-73
2021/03/29 10:48:28;;;;;;;0.40;0.30;;;;;;;16.29;49.99;102169.13;5096533;28;20559;-73
2021/03/29 10:50:54;;;;;;;0.60;0.53;;;;;;;16.44;49.21;102180.91;5096618;28;20509;-72
2021/03/29 10:53:20;;;;;;;0.40;0.27;;;;;;;16.49;48.95;102172.59;5096542;28;20436;-73
2021/03/29 10:55:46;;;;;;;0.83;0.80;;;;;;;16.49;48.62;102150.72;5096156;28;20447;-73
2021/03/29 10:58:12;;;;;;;0.60;0.40;;;;;;;16.65;49.12;102158.34;5096413;28;20524;-73
2021/03/29 11:00:38;;;;;;;0.60;0.43;;;;;;;16.80;48.54;102162.72;5096203;28;20826;-73
2021/03/29 11:03:04;;;;;;;0.80;0.80;;;;;;;16.89;48.48;102163.63;5096277;28;20539;-72
2021/03/29 11:05:31;;;;;;;0.40;0.30;;;;;;;16.76;48.36;102161.72;5096016;28;20941;-73
2021/03/29 11:07:57;;;;;;;0.70;0.60;;;;;;;16.67;48.18;102160.75;5095921;28;20492;-72
2021/03/29 11:10:23;;;;;;;0.40;0.30;;;;;;;16.65;48.75;102163.81;5096218;28;20921;-72
2021/03/29 11:12:49;;;;;;;0.83;0.57;;;;;;;16.59;48.09;102161.47;5096014;28;20818;-72
2021/03/29 11:15:15;;;;;;;2.80;0.80;;;;;;;16.68;48.03;102172.50;5095864;28;20852;-72
2021/03/29 11:17:42;;;;;;;3.63;0.80;;;;;;;16.61;48.44;102172.94;5096018;28;20460;-72
2021/03/29 11:20:08;;;;;;;0.90;0.50;;;;;;;16.62;47.93;102166.34;5096743;28;20441;-72
2021/03/29 11:22:35;;;;;;;0.70;0.63;;;;;;;16.50;47.99;102160.53;5097815;28;20440;-72
2021/03/29 11:25:01;;;;;;;0.57;0.30;;;;;;;16.61;48.92;102178.41;5096583;28;20444;-72
2021/03/29 11:27:27;;;;;;;1.33;0.90;;;;;;;16.69;47.98;102176.88;5095658;28;21021;-72
2021/03/29 11:29:53;;;;;;;1.37;0.57;;;;;;;16.69;48.83;102166.75;5095574;28;20445;-71